createdAt,value
2018-11-06T00:00:37.153Z,83.00
2018-11-06T00:03:30.540Z,82.39
2018-11-06T00:06:02.347Z,82.84
2018-11-06T00:08:34.174Z,83.27
2018-11-06T00:11:06.799Z,83.28
2018-11-06T00:13:39.154Z,83.58
2018-11-06T00:16:11.169Z,83.96
2018-11-06T00:18:43.016Z,83.12
2018-11-06T00:21:14.832Z,83.36
2018-11-06T00:23:46.676Z,82.80
2018-11-06T00:26:18.482Z,82.67
2018-11-06T00:28:50.301Z,82.17
2018-11-06T00:31:22.101Z,82.40
2018-11-06T00:33:53.944Z,82.57
2018-11-06T00:36:25.737Z,82.43
2018-11-06T00:38:57.568Z,81.84
2018-11-06T00:41:29.373Z,82.81
2018-11-06T00:44:01.204Z,83.47
2018-11-06T00:46:33.021Z,82.73
2018-11-06T00:49:04.851Z,83.05
2018-11-06T00:51:36.649Z,83.15
2018-11-06T00:54:08.946Z,83.62
2018-11-06T00:56:40.750Z,83.28
2018-11-06T00:59:12.696Z,82.36
2018-11-06T01:01:44.581Z,82.44
2018-11-06T01:04:16.420Z,82.50
2018-11-06T01:06:48.236Z,82.29
2018-11-06T01:09:20.452Z,82.93
2018-11-06T01:11:52.250Z,82.63
2018-11-06T01:14:24.196Z,81.78
2018-11-06T01:16:55.998Z,83.11
2018-11-06T01:19:27.829Z,83.06
2018-11-06T01:21:59.643Z,83.04
2018-11-06T01:24:31.483Z,82.82
2018-11-06T01:27:03.287Z,83.04
2018-11-06T01:29:35.138Z,83.05
2018-11-06T01:32:07.230Z,83.29
2018-11-06T01:34:39.309Z,83.67
2018-11-06T01:37:11.114Z,83.70
2018-11-06T01:39:42.946Z,83.19
2018-11-06T01:42:14.740Z,83.91
2018-11-06T01:44:46.568Z,83.43
2018-11-06T01:47:18.388Z,83.58
2018-11-06T01:49:50.216Z,83.45
2018-11-06T01:52:22.012Z,84.07
2018-11-06T01:54:53.824Z,83.58
2018-11-06T01:57:25.621Z,83.23
2018-11-06T01:59:57.431Z,83.51
2018-11-06T02:02:29.276Z,84.50
2018-11-06T02:05:01.095Z,83.19
2018-11-06T02:07:32.908Z,83.46
2018-11-06T02:10:04.739Z,84.00
2018-11-06T02:12:36.540Z,83.49
2018-11-06T02:15:09.091Z,83.88
2018-11-06T02:17:42.252Z,84.17
2018-11-06T02:20:14.763Z,84.40
2018-11-06T02:22:47.029Z,84.68
2018-11-06T02:25:18.874Z,84.18
2018-11-06T02:27:50.684Z,84.11
2018-11-06T02:30:22.654Z,84.20
2018-11-06T02:32:54.324Z,84.22
2018-11-06T02:35:26.161Z,84.87
2018-11-06T02:37:57.963Z,84.19
2018-11-06T02:40:29.780Z,83.88
2018-11-06T02:43:01.563Z,84.19
2018-11-06T02:45:33.364Z,83.90
2018-11-06T02:48:05.166Z,83.86
2018-11-06T02:50:36.978Z,83.41
2018-11-06T02:53:08.789Z,83.52
2018-11-06T02:55:40.688Z,83.61
2018-11-06T02:58:12.430Z,84.21
2018-11-06T03:00:44.298Z,83.68
2018-11-06T03:03:16.102Z,84.35
2018-11-06T03:05:47.943Z,83.86
2018-11-06T03:08:19.752Z,83.94
2018-11-06T03:10:51.590Z,83.53
2018-11-06T03:13:23.386Z,83.36
2018-11-06T03:15:55.214Z,83.76
2018-11-06T03:18:27.228Z,83.68
2018-11-06T03:20:59.091Z,84.08
2018-11-06T03:23:30.879Z,83.76
2018-11-06T03:26:02.702Z,84.02
2018-11-06T03:28:34.515Z,84.29
2018-11-06T03:31:06.357Z,83.63
2018-11-06T03:33:38.144Z,83.53
2018-11-06T03:36:09.984Z,82.93
2018-11-06T03:38:41.789Z,83.11
2018-11-06T03:41:13.608Z,83.04
2018-11-06T03:43:45.495Z,83.71
2018-11-06T03:46:17.336Z,83.83
2018-11-06T03:48:49.145Z,83.31
2018-11-06T03:51:20.979Z,83.78
2018-11-06T03:53:52.770Z,83.91
2018-11-06T03:56:24.613Z,84.07
2018-11-06T03:58:56.428Z,83.98
2018-11-06T04:01:28.235Z,83.88
2018-11-06T04:04:00.007Z,83.50
2018-11-06T04:06:32.034Z,83.38
2018-11-06T04:09:03.963Z,83.55
2018-11-06T04:11:35.780Z,83.50
2018-11-06T04:14:08.411Z,83.70
2018-11-06T04:16:40.688Z,83.87
2018-11-06T04:19:12.481Z,83.05
2018-11-06T04:21:44.311Z,83.07
2018-11-06T04:24:16.141Z,83.09
2018-11-06T04:26:47.954Z,83.56
2018-11-06T04:29:19.720Z,83.82
2018-11-06T04:31:51.526Z,83.89
2018-11-06T04:34:23.310Z,83.50
2018-11-06T04:36:57.335Z,83.55
2018-11-06T04:39:26.875Z,83.48
2018-11-06T04:41:58.672Z,83.35
2018-11-06T04:44:30.499Z,82.63
2018-11-06T04:47:02.303Z,84.00
2018-11-06T04:49:34.111Z,83.50
2018-11-06T04:52:06.165Z,84.10
2018-11-06T04:54:38.043Z,82.71
2018-11-06T04:57:09.829Z,84.22
2018-11-06T04:59:41.608Z,84.72
2018-11-06T05:02:13.475Z,84.19
2018-11-06T05:04:45.232Z,84.05
2018-11-06T05:07:17.073Z,84.16
2018-11-06T05:09:48.856Z,84.82
2018-11-06T05:12:20.647Z,84.90
2018-11-06T05:14:52.568Z,84.54
2018-11-06T05:17:24.496Z,84.14
2018-11-06T05:19:56.300Z,83.96
2018-11-06T05:22:28.356Z,83.83
2018-11-06T05:25:00.186Z,83.95
2018-11-06T05:27:32.069Z,84.00
2018-11-06T05:30:03.798Z,83.69
2018-11-06T05:32:35.591Z,83.87
2018-11-06T05:35:08.776Z,84.05
2018-11-06T05:37:40.925Z,84.95
2018-11-06T05:41:08.027Z,84.35
2018-11-06T05:43:40.162Z,84.59
2018-11-06T05:46:11.975Z,84.81
2018-11-06T05:48:43.784Z,84.01
2018-11-06T05:51:15.833Z,84.65
2018-11-06T05:53:47.596Z,84.68
2018-11-06T05:56:19.439Z,84.25
2018-11-06T05:58:51.324Z,83.84
2018-11-06T06:01:23.250Z,84.29
2018-11-06T06:03:55.153Z,83.77
2018-11-06T06:06:27.051Z,84.58
2018-11-06T06:08:58.911Z,84.50
2018-11-06T06:11:30.696Z,84.24
2018-11-06T06:14:02.556Z,84.12
2018-11-06T06:16:34.487Z,84.48
2018-11-06T06:19:06.675Z,86.26
2018-11-06T06:21:38.526Z,85.08
2018-11-06T06:24:10.343Z,84.49
2018-11-06T06:26:42.217Z,84.00
2018-11-06T06:29:14.082Z,84.56
2018-11-06T06:31:45.967Z,84.57
2018-11-06T06:34:17.842Z,83.41
2018-11-06T06:36:49.646Z,84.65
2018-11-06T06:39:21.484Z,84.56
2018-11-06T06:41:53.296Z,83.50
2018-11-06T06:44:25.263Z,84.21
2018-11-06T06:46:57.047Z,83.72
2018-11-06T06:49:28.850Z,84.54
2018-11-06T06:52:00.748Z,84.14
2018-11-06T06:54:32.940Z,82.44
2018-11-06T06:57:06.200Z,82.58
2018-11-06T06:59:38.030Z,83.40
2018-11-06T07:02:09.806Z,82.26
2018-11-06T07:04:41.683Z,82.93
2018-11-06T07:07:13.650Z,82.77
2018-11-06T07:09:45.644Z,82.17
2018-11-06T07:12:17.353Z,81.90
2018-11-06T07:14:49.288Z,82.68
2018-11-06T07:17:21.132Z,82.17
2018-11-06T07:19:53.092Z,81.94
2018-11-06T07:22:24.945Z,80.59
2018-11-06T07:24:57.044Z,81.30
2018-11-06T07:27:28.993Z,80.29
2018-11-06T07:30:00.865Z,77.97
2018-11-06T07:32:32.782Z,76.93
2018-11-06T07:35:05.052Z,77.41
2018-11-06T07:37:36.842Z,78.50
2018-11-06T07:40:10.513Z,79.00
2018-11-06T07:42:42.803Z,77.54
2018-11-06T07:45:19.096Z,77.68
2018-11-06T07:47:50.888Z,77.14
2018-11-06T07:50:22.832Z,76.81
2018-11-06T07:52:54.718Z,76.73
2018-11-06T07:55:26.738Z,75.72
2018-11-06T07:57:58.555Z,76.74
2018-11-06T08:00:30.560Z,75.92
2018-11-06T08:03:02.579Z,75.86
2018-11-06T08:05:34.408Z,75.03
2018-11-06T08:08:06.694Z,74.67
2018-11-06T08:10:38.548Z,73.74
2018-11-06T08:13:10.410Z,71.96
2018-11-06T08:15:42.314Z,71.66
2018-11-06T08:18:14.173Z,70.87
2018-11-06T08:20:46.144Z,70.99
2018-11-06T08:23:17.934Z,69.86
2018-11-06T08:25:49.912Z,69.11
2018-11-06T08:28:21.746Z,68.84
2018-11-06T08:30:53.919Z,68.38
2018-11-06T08:33:25.471Z,68.73
2018-11-06T08:35:57.449Z,67.94
2018-11-06T08:38:29.361Z,67.18
2018-11-06T08:41:01.208Z,64.82
2018-11-06T08:43:33.032Z,63.74
2018-11-06T08:46:04.888Z,63.33
2018-11-06T08:48:36.726Z,62.20
2018-11-06T08:51:08.779Z,61.32
2018-11-06T08:53:40.776Z,61.91
2018-11-06T08:56:12.645Z,61.00
2018-11-06T08:58:44.700Z,60.03
2018-11-06T09:01:18.074Z,58.59
2018-11-06T09:03:49.976Z,58.96
2018-11-06T09:06:21.902Z,56.24
2018-11-06T09:08:53.747Z,56.89
2018-11-06T09:11:25.616Z,56.60
2018-11-06T09:13:57.432Z,55.71
2018-11-06T09:16:29.486Z,54.99
2018-11-06T09:19:01.298Z,54.61
2018-11-06T09:21:33.057Z,54.26
2018-11-06T09:24:04.960Z,54.40
2018-11-06T09:26:37.082Z,52.53
2018-11-06T09:29:09.429Z,52.27
2018-11-06T09:31:41.275Z,50.00
2018-11-06T09:34:13.186Z,49.33
2018-11-06T09:36:45.076Z,49.85
2018-11-06T09:39:19.794Z,49.38
2018-11-06T09:41:51.711Z,48.29
2018-11-06T09:44:23.581Z,48.41
2018-11-06T09:46:55.477Z,47.93
2018-11-06T09:49:27.366Z,48.61
2018-11-06T09:51:59.252Z,48.67
2018-11-06T09:54:30.986Z,48.47
2018-11-06T09:57:02.974Z,48.87
2018-11-06T09:59:34.787Z,47.31
2018-11-06T10:02:06.658Z,46.59
2018-11-06T10:04:38.549Z,45.63
2018-11-06T10:07:11.048Z,45.45
2018-11-06T10:09:42.697Z,44.58
2018-11-06T10:12:14.518Z,43.77
2018-11-06T10:14:46.371Z,42.93
2018-11-06T10:17:18.207Z,43.31
2018-11-06T10:19:50.045Z,43.17
2018-11-06T10:22:21.932Z,43.51
2018-11-06T10:24:53.766Z,43.74
2018-11-06T10:27:25.656Z,44.47
2018-11-06T10:29:57.487Z,45.50
2018-11-06T10:32:29.329Z,45.88
2018-11-06T10:35:01.272Z,46.42
2018-11-06T10:37:33.153Z,47.13
2018-11-06T10:40:05.505Z,47.41
2018-11-06T10:42:37.405Z,47.41
2018-11-06T10:45:09.699Z,48.32
2018-11-06T10:47:42.274Z,47.99
2018-11-06T10:50:15.268Z,48.00
2018-11-06T10:52:47.762Z,48.31
2018-11-06T10:55:19.641Z,48.33
2018-11-06T10:57:51.653Z,48.03
2018-11-06T11:00:40.638Z,48.66
2018-11-06T11:03:29.973Z,49.06
2018-11-06T11:06:01.961Z,49.27
2018-11-06T11:08:33.889Z,49.85
2018-11-06T11:11:05.605Z,50.42
2018-11-06T11:13:37.485Z,50.20
2018-11-06T11:16:09.321Z,49.63
2018-11-06T11:18:41.196Z,49.89
2018-11-06T11:21:13.632Z,49.43
2018-11-06T11:23:45.502Z,49.83
2018-11-06T11:26:17.337Z,49.64
2018-11-06T11:28:49.415Z,50.05
2018-11-06T11:31:21.283Z,49.89
2018-11-06T11:33:53.164Z,49.94
2018-11-06T11:36:24.929Z,50.99
2018-11-06T11:38:56.799Z,50.43
2018-11-06T11:41:28.722Z,49.98
2018-11-06T11:44:00.576Z,49.63
2018-11-06T11:46:32.387Z,49.19
2018-11-06T11:49:04.267Z,49.16
2018-11-06T11:51:36.103Z,49.17
2018-11-06T11:54:11.028Z,48.62
2018-11-06T11:56:42.978Z,49.08
2018-11-06T11:59:14.812Z,48.33
2018-11-06T12:01:46.652Z,48.21
2018-11-06T12:04:18.643Z,48.18
2018-11-06T12:06:50.607Z,48.89
2018-11-06T12:09:22.334Z,48.87
2018-11-06T12:11:54.182Z,49.14
2018-11-06T12:14:26.083Z,48.68
2018-11-06T12:16:57.973Z,49.21
2018-11-06T12:19:29.823Z,48.84
2018-11-06T12:22:01.627Z,48.42
2018-11-06T12:24:33.560Z,48.98
2018-11-06T12:27:05.482Z,48.76
2018-11-06T12:29:37.433Z,48.77
2018-11-06T12:32:09.284Z,48.52
2018-11-06T12:34:41.169Z,48.81
2018-11-06T12:37:13.011Z,48.58
2018-11-06T12:39:44.877Z,48.92
2018-11-06T12:42:16.951Z,48.80
2018-11-06T12:44:48.805Z,48.96
2018-11-06T12:47:20.624Z,49.19
2018-11-06T12:49:52.487Z,48.76
2018-11-06T12:52:24.318Z,49.10
2018-11-06T12:54:56.241Z,48.76
2018-11-06T12:57:28.193Z,49.45
2018-11-06T13:00:00.056Z,48.95
2018-11-06T13:02:31.847Z,47.83
2018-11-06T13:05:38.215Z,47.70
2018-11-06T13:08:10.185Z,47.32
2018-11-06T13:10:42.092Z,46.88
2018-11-06T13:13:13.922Z,47.37
2018-11-06T13:15:45.882Z,46.67
2018-11-06T13:18:17.635Z,46.64
2018-11-06T13:20:49.526Z,47.00
2018-11-06T13:23:21.399Z,47.18
2018-11-06T13:25:53.415Z,46.53
2018-11-06T13:28:25.185Z,46.47
2018-11-06T13:30:57.070Z,46.29
2018-11-06T13:33:28.938Z,47.02
2018-11-06T13:36:00.845Z,47.33
2018-11-06T13:38:33.019Z,47.05
2018-11-06T13:41:04.938Z,47.03
2018-11-06T13:43:36.858Z,46.78
2018-11-06T13:46:08.727Z,46.94
2018-11-06T13:48:40.484Z,47.18
2018-11-06T13:51:12.422Z,46.50
2018-11-06T13:53:44.617Z,46.80
2018-11-06T13:56:16.793Z,46.52
2018-11-06T13:58:48.662Z,45.98
2018-11-06T14:01:20.708Z,45.99
2018-11-06T14:03:52.524Z,46.11
2018-11-06T14:06:24.412Z,46.77
2018-11-06T14:08:56.363Z,46.53
2018-11-06T14:11:28.276Z,48.01
2018-11-06T14:14:00.118Z,48.40
2018-11-06T14:16:32.208Z,47.69
2018-11-06T14:19:04.183Z,47.03
2018-11-06T14:21:36.113Z,46.92
2018-11-06T14:24:08.051Z,46.92
2018-11-06T14:26:40.154Z,46.86
2018-11-06T14:29:12.013Z,46.32
2018-11-06T14:31:43.880Z,46.29
2018-11-06T14:34:15.796Z,46.71
2018-11-06T14:36:47.841Z,47.37
2018-11-06T14:39:19.741Z,47.18
2018-11-06T14:41:51.773Z,47.72
2018-11-06T14:44:23.716Z,47.85
2018-11-06T14:46:55.574Z,47.09
2018-11-06T14:49:27.537Z,48.06
2018-11-06T14:51:59.336Z,47.91
2018-11-06T14:54:31.213Z,47.79
2018-11-06T14:57:03.062Z,47.50
2018-11-06T14:59:34.951Z,49.02
2018-11-06T15:02:06.791Z,48.59
2018-11-06T15:04:38.636Z,48.32
2018-11-06T15:07:10.588Z,48.59
2018-11-06T15:09:42.462Z,48.65
2018-11-06T15:12:14.322Z,49.44
2018-11-06T15:14:46.352Z,49.84
2018-11-06T15:17:18.196Z,50.24
2018-11-06T15:19:50.148Z,51.02
2018-11-06T15:22:22.055Z,53.06
2018-11-06T15:24:53.917Z,54.27
2018-11-06T15:27:25.804Z,56.04
2018-11-06T15:29:57.608Z,56.92
2018-11-06T15:32:29.532Z,56.96
2018-11-06T15:35:01.441Z,58.92
2018-11-06T15:37:33.421Z,59.17
2018-11-06T15:40:05.434Z,58.90
2018-11-06T15:42:37.380Z,59.51
2018-11-06T15:45:11.744Z,61.81
2018-11-06T15:47:44.715Z,61.70
2018-11-06T15:50:17.808Z,62.09
2018-11-06T15:52:50.494Z,62.76
2018-11-06T15:55:22.348Z,63.22
2018-11-06T15:57:54.213Z,63.39
2018-11-06T16:00:26.137Z,64.50
2018-11-06T16:02:59.410Z,64.97
2018-11-06T16:05:50.376Z,64.03
2018-11-06T16:08:22.366Z,65.98
2018-11-06T16:10:54.110Z,66.59
2018-11-06T16:13:26.034Z,67.44
2018-11-06T16:15:57.907Z,67.20
2018-11-06T16:18:29.982Z,66.99
2018-11-06T16:21:01.975Z,68.03
2018-11-06T16:23:33.929Z,68.02
2018-11-06T16:26:05.856Z,68.27
2018-11-06T16:28:37.753Z,68.60
2018-11-06T16:31:09.778Z,68.72
2018-11-06T16:33:41.638Z,69.42
2018-11-06T16:36:13.608Z,69.66
2018-11-06T16:38:46.592Z,70.31
2018-11-06T16:41:18.418Z,70.76
2018-11-06T16:43:50.443Z,71.26
2018-11-06T16:46:22.335Z,71.48
2018-11-06T16:48:54.400Z,72.31
2018-11-06T16:51:26.218Z,72.80
2018-11-06T16:53:58.215Z,72.72
2018-11-06T16:56:30.112Z,73.23
2018-11-06T16:59:01.988Z,73.66
2018-11-06T17:01:33.850Z,74.24
2018-11-06T17:04:05.907Z,74.15
2018-11-06T17:06:51.002Z,74.34
2018-11-06T17:09:23.181Z,74.34
2018-11-06T17:11:55.183Z,74.76
2018-11-06T17:14:27.181Z,75.12
2018-11-06T17:16:59.086Z,75.27
2018-11-06T17:19:31.078Z,75.49
2018-11-06T17:22:02.970Z,75.34
2018-11-06T17:24:35.031Z,75.87
2018-11-06T17:27:07.209Z,76.38
2018-11-06T17:29:39.305Z,76.82
2018-11-06T17:32:11.143Z,77.02
2018-11-06T17:34:43.116Z,77.18
2018-11-06T17:37:14.891Z,76.68
2018-11-06T17:39:47.128Z,77.15
2018-11-06T17:42:19.010Z,77.56
2018-11-06T17:44:50.874Z,77.70
2018-11-06T17:47:22.708Z,77.89
2018-11-06T17:49:54.661Z,78.22
2018-11-06T17:52:26.605Z,78.02
2018-11-06T17:54:58.662Z,79.54
2018-11-06T17:57:30.445Z,78.94
2018-11-06T18:00:02.306Z,78.42
2018-11-06T18:02:34.267Z,78.55
2018-11-06T18:05:08.315Z,78.72
2018-11-06T18:07:40.610Z,78.92
2018-11-06T18:10:14.167Z,80.35
2018-11-06T18:12:46.232Z,80.14
2018-11-06T18:15:18.261Z,79.98
2018-11-06T18:17:50.322Z,79.54
2018-11-06T18:20:22.066Z,79.50
2018-11-06T18:22:53.893Z,80.17
2018-11-06T18:25:25.901Z,79.77
2018-11-06T18:27:57.589Z,79.77
2018-11-06T18:30:36.054Z,79.52
2018-11-06T18:33:07.864Z,79.26
2018-11-06T18:35:39.744Z,79.65
2018-11-06T18:38:11.699Z,79.89
2018-11-06T18:40:43.671Z,80.12
2018-11-06T18:43:15.428Z,80.11
2018-11-06T18:45:47.345Z,80.10
2018-11-06T18:48:19.160Z,80.89
2018-11-06T18:50:51.005Z,80.79
2018-11-06T18:53:22.976Z,81.20
2018-11-06T18:55:54.901Z,80.94
2018-11-06T18:58:26.917Z,80.42
2018-11-06T19:00:58.841Z,80.54
2018-11-06T19:03:30.611Z,80.62
2018-11-06T19:06:02.519Z,80.38
2018-11-06T19:08:34.335Z,80.65
2018-11-06T19:11:06.319Z,80.47
2018-11-06T19:13:38.136Z,80.68
2018-11-06T19:16:09.993Z,80.71
2018-11-06T19:18:41.882Z,80.58
2018-11-06T19:21:13.853Z,80.58
2018-11-06T19:23:45.953Z,80.28
2018-11-06T19:26:18.041Z,78.95
2018-11-06T19:28:50.033Z,77.38
2018-11-06T19:31:22.130Z,75.85
2018-11-06T19:33:54.022Z,72.15
2018-11-06T19:36:25.963Z,71.14
2018-11-06T19:38:57.721Z,70.33
2018-11-06T19:41:29.610Z,71.52
2018-11-06T19:44:01.498Z,70.90
2018-11-06T19:46:33.365Z,71.48
2018-11-06T19:49:05.337Z,72.83
2018-11-06T19:51:37.110Z,73.59
2018-11-06T19:54:09.092Z,74.52
2018-11-06T19:56:40.999Z,74.91
2018-11-06T19:59:12.805Z,73.10
2018-11-06T20:01:44.665Z,74.30
2018-11-06T20:04:16.539Z,73.66
2018-11-06T20:06:48.412Z,73.18
2018-11-06T20:09:20.287Z,72.40
2018-11-06T20:11:52.323Z,74.70
2018-11-06T20:14:24.030Z,74.21
2018-11-06T20:16:55.870Z,74.82
2018-11-06T20:19:27.695Z,75.63
2018-11-06T20:21:59.545Z,75.15
2018-11-06T20:24:31.386Z,73.02
2018-11-06T20:27:03.313Z,70.54
2018-11-06T20:29:35.149Z,69.52
2018-11-06T20:32:07.000Z,68.79
2018-11-06T20:34:38.849Z,68.64
2018-11-06T20:37:10.717Z,69.10
2018-11-06T20:39:42.595Z,69.55
2018-11-06T20:42:14.415Z,69.28
2018-11-06T20:44:46.245Z,69.67
2018-11-06T20:47:18.152Z,69.37
2018-11-06T20:49:50.074Z,70.21
2018-11-06T20:52:21.913Z,70.46
2018-11-06T20:54:53.737Z,70.33
2018-11-06T20:57:25.791Z,70.74
2018-11-06T20:59:57.638Z,70.62
2018-11-06T21:02:29.480Z,71.23
2018-11-06T21:05:01.319Z,70.72
2018-11-06T21:07:33.137Z,70.92
2018-11-06T21:10:04.946Z,70.73
2018-11-06T21:12:36.804Z,69.84
2018-11-06T21:15:09.668Z,71.18
2018-11-06T21:17:41.688Z,70.28
2018-11-06T21:20:14.323Z,70.58
2018-11-06T21:22:46.283Z,70.94
2018-11-06T21:25:18.178Z,71.70
2018-11-06T21:27:49.974Z,72.17
2018-11-06T21:30:22.377Z,73.09
2018-11-06T21:32:56.881Z,72.37
2018-11-06T21:35:28.720Z,72.63
2018-11-06T21:38:00.571Z,72.99
2018-11-06T21:40:32.389Z,73.47
2018-11-06T21:43:04.222Z,73.35
2018-11-06T21:45:39.080Z,73.91
2018-11-06T21:48:10.952Z,74.19
2018-11-06T21:50:42.769Z,74.29
2018-11-06T21:53:14.609Z,74.60
2018-11-06T21:55:46.499Z,74.36
2018-11-06T21:58:18.318Z,74.32
2018-11-06T22:00:50.257Z,74.27
2018-11-06T22:03:22.016Z,74.56
2018-11-06T22:05:53.822Z,74.93
2018-11-06T22:08:25.694Z,74.83
2018-11-06T22:10:57.516Z,74.94
2018-11-06T22:13:29.358Z,76.06
2018-11-06T22:16:01.172Z,76.05
2018-11-06T22:18:33.053Z,76.00
2018-11-06T22:21:04.866Z,76.09
2018-11-06T22:23:36.689Z,75.65
2018-11-06T22:26:08.534Z,76.15
2018-11-06T22:28:40.376Z,76.46
2018-11-06T22:31:12.197Z,76.71
2018-11-06T22:33:44.034Z,77.03
2018-11-06T22:36:15.864Z,77.03
2018-11-06T22:38:47.732Z,76.40
2018-11-06T22:41:19.586Z,76.30
2018-11-06T22:43:51.430Z,76.91
2018-11-06T22:46:23.254Z,77.26
2018-11-06T22:48:55.162Z,76.98
2018-11-06T22:51:26.977Z,77.16
2018-11-06T22:53:59.002Z,77.62
2018-11-06T22:56:30.862Z,77.61
2018-11-06T22:59:02.680Z,77.25
2018-11-06T23:01:34.513Z,77.38
2018-11-06T23:04:06.361Z,77.33
2018-11-06T23:06:38.232Z,77.75
2018-11-06T23:09:12.745Z,77.93
2018-11-06T23:11:44.576Z,77.71
2018-11-06T23:14:16.392Z,77.34
2018-11-06T23:16:48.216Z,77.71
2018-11-06T23:19:20.061Z,78.06
2018-11-06T23:21:51.879Z,78.26
2018-11-06T23:24:23.706Z,78.89
2018-11-06T23:26:55.523Z,78.70
2018-11-06T23:29:27.368Z,79.18
2018-11-06T23:31:59.206Z,79.18
2018-11-06T23:34:31.036Z,79.32
2018-11-06T23:37:03.117Z,79.10
2018-11-06T23:39:34.945Z,78.94
2018-11-06T23:42:07.109Z,79.34
2018-11-06T23:44:38.960Z,78.72
2018-11-06T23:47:10.786Z,79.14
2018-11-06T23:49:42.641Z,79.67
2018-11-06T23:52:14.431Z,79.54
2018-11-06T23:54:46.267Z,79.99
2018-11-06T23:57:18.250Z,79.58
2018-11-06T23:59:51.078Z,79.34
